createdAt,value
2023-02-16T00:01:32.551Z,11.50
2023-02-16T00:04:00.786Z,11.63
2023-02-16T00:06:30.177Z,12.87
2023-02-16T00:08:58.366Z,13.60
2023-02-16T00:11:48.671Z,13.00
2023-02-16T00:14:17.177Z,13.60
2023-02-16T00:16:46.618Z,12.40
2023-02-16T00:19:19.784Z,12.53
2023-02-16T00:21:48.134Z,11.70
2023-02-16T00:24:16.255Z,13.40
2023-02-16T00:26:45.401Z,13.30
2023-02-16T00:29:19.595Z,12.67
2023-02-16T00:31:49.849Z,13.03
2023-02-16T00:34:37.184Z,12.37
2023-02-16T00:37:06.748Z,13.47
2023-02-16T00:39:35.323Z,11.77
2023-02-16T00:42:05.578Z,13.03
2023-02-16T00:44:37.136Z,13.57
2023-02-16T00:47:18.706Z,13.07
2023-02-16T00:49:46.807Z,11.93
2023-02-16T00:52:31.296Z,12.17
2023-02-16T00:55:00.335Z,12.70
2023-02-16T00:57:31.980Z,13.20
2023-02-16T01:00:03.456Z,13.37
2023-02-16T01:02:34.112Z,12.77
2023-02-16T01:05:02.205Z,12.73
2023-02-16T01:07:49.805Z,13.57
2023-02-16T01:10:36.474Z,12.50
2023-02-16T01:13:04.670Z,12.50
2023-02-16T01:15:32.830Z,12.43
2023-02-16T01:18:02.174Z,13.27
2023-02-16T01:20:30.316Z,13.37
2023-02-16T01:22:58.504Z,13.87
2023-02-16T01:25:26.541Z,13.17
2023-02-16T01:27:54.529Z,13.77
2023-02-16T01:30:25.209Z,13.40
2023-02-16T01:32:53.521Z,13.07
2023-02-16T01:35:24.714Z,13.27
2023-02-16T01:37:52.878Z,12.83
2023-02-16T01:40:31.632Z,12.40
2023-02-16T01:43:05.205Z,13.33
2023-02-16T01:45:36.536Z,13.07
2023-02-16T01:48:07.044Z,12.70
2023-02-16T01:50:45.671Z,13.70
2023-02-16T01:53:20.984Z,12.93
2023-02-16T01:55:56.160Z,13.73
2023-02-16T01:58:34.735Z,13.50
2023-02-16T02:01:37.513Z,14.10
2023-02-16T02:04:33.046Z,12.93
2023-02-16T02:07:04.785Z,12.17
2023-02-16T02:09:41.747Z,13.93
2023-02-16T02:12:17.813Z,13.23
2023-02-16T02:14:45.920Z,13.63
2023-02-16T02:17:18.804Z,13.97
2023-02-16T02:20:00.358Z,13.50
2023-02-16T02:23:17.546Z,13.60
2023-02-16T02:26:29.636Z,12.13
2023-02-16T02:29:12.546Z,11.93
2023-02-16T02:31:51.445Z,13.33
2023-02-16T02:34:28.990Z,13.17
2023-02-16T02:37:07.233Z,14.00
2023-02-16T02:39:41.661Z,13.23
2023-02-16T02:42:16.465Z,13.73
2023-02-16T02:44:49.800Z,13.67
2023-02-16T02:47:18.079Z,12.63
2023-02-16T02:49:51.970Z,13.20
2023-02-16T02:52:20.457Z,12.73
2023-02-16T02:55:07.376Z,13.53
2023-02-16T02:57:57.361Z,13.13
2023-02-16T03:00:44.030Z,12.80
2023-02-16T03:03:18.313Z,13.33
2023-02-16T03:05:50.705Z,12.33
2023-02-16T03:08:28.441Z,12.53
2023-02-16T03:11:19.051Z,13.47
2023-02-16T03:13:51.486Z,14.57
2023-02-16T03:16:27.181Z,12.13
2023-02-16T03:19:13.541Z,13.70
2023-02-16T03:22:00.217Z,13.17
2023-02-16T03:24:47.538Z,13.23
2023-02-16T03:27:37.122Z,13.70
2023-02-16T03:30:08.446Z,12.73
2023-02-16T03:32:38.760Z,12.27
2023-02-16T03:35:07.416Z,14.10
2023-02-16T03:37:35.597Z,14.63
2023-02-16T03:40:21.626Z,13.80
2023-02-16T03:42:50.853Z,13.53
2023-02-16T03:45:19.807Z,14.60
2023-02-16T03:47:49.044Z,14.37
2023-02-16T03:50:17.326Z,14.60
2023-02-16T03:52:45.255Z,13.87
2023-02-16T03:55:13.168Z,13.33
2023-02-16T03:57:41.118Z,15.13
2023-02-16T04:00:10.013Z,12.77
2023-02-16T04:02:37.901Z,12.80
2023-02-16T04:05:07.768Z,13.00
2023-02-16T04:07:35.770Z,12.63
2023-02-16T04:10:04.000Z,12.23
2023-02-16T04:12:38.023Z,13.47
2023-02-16T04:15:07.597Z,13.47
2023-02-16T04:17:35.651Z,12.63
2023-02-16T04:20:03.657Z,13.23
2023-02-16T04:22:33.087Z,13.63
2023-02-16T04:25:01.481Z,13.93
2023-02-16T04:27:29.943Z,13.13
2023-02-16T04:29:57.803Z,13.37
2023-02-16T04:32:25.854Z,12.53
2023-02-16T04:34:54.214Z,13.70
2023-02-16T04:37:22.077Z,13.20
2023-02-16T04:39:51.312Z,13.90
2023-02-16T04:42:19.246Z,13.13
2023-02-16T04:44:47.089Z,12.93
2023-02-16T04:47:15.402Z,13.73
2023-02-16T04:49:43.295Z,13.17
2023-02-16T04:52:12.812Z,13.23
2023-02-16T04:54:40.920Z,13.53
2023-02-16T04:57:10.820Z,13.50
2023-02-16T04:59:39.438Z,13.10
2023-02-16T05:02:07.477Z,12.63
2023-02-16T05:04:36.559Z,13.53
2023-02-16T05:07:04.470Z,13.27
2023-02-16T05:09:34.504Z,13.20
2023-02-16T05:12:19.745Z,13.70
2023-02-16T05:14:49.940Z,13.33
2023-02-16T05:17:20.311Z,13.60
2023-02-16T05:19:50.603Z,13.93
2023-02-16T05:22:19.732Z,13.20
2023-02-16T05:24:48.337Z,12.90
2023-02-16T05:27:18.022Z,13.07
2023-02-16T05:29:49.193Z,11.90
2023-02-16T05:32:18.208Z,13.23
2023-02-16T05:34:46.138Z,13.00
2023-02-16T05:37:14.852Z,14.63
2023-02-16T05:39:42.921Z,13.90
2023-02-16T05:42:11.289Z,14.03
2023-02-16T05:44:39.448Z,12.47
2023-02-16T05:47:08.800Z,13.63
2023-02-16T05:49:36.711Z,12.97
2023-02-16T05:52:04.797Z,13.13
2023-02-16T05:54:32.810Z,12.63
2023-02-16T05:57:00.685Z,12.87
2023-02-16T05:59:28.625Z,13.30
2023-02-16T06:01:56.560Z,13.30
2023-02-16T06:04:25.990Z,13.17
2023-02-16T06:06:54.412Z,13.03
2023-02-16T06:09:22.371Z,12.83
2023-02-16T06:11:50.319Z,13.37
2023-02-16T06:14:20.457Z,13.17
2023-02-16T06:16:49.631Z,12.70
2023-02-16T06:19:19.210Z,13.37
2023-02-16T06:21:48.534Z,13.50
2023-02-16T06:24:16.802Z,12.80
2023-02-16T06:26:44.758Z,13.17
2023-02-16T06:29:12.679Z,12.33
2023-02-16T06:31:40.662Z,13.30
2023-02-16T06:34:08.636Z,13.53
2023-02-16T06:36:36.524Z,13.37
2023-02-16T06:39:06.259Z,13.30
2023-02-16T06:41:37.846Z,13.43
2023-02-16T06:44:07.884Z,12.83
2023-02-16T06:46:36.051Z,12.70
2023-02-16T06:49:04.063Z,13.67
2023-02-16T06:51:32.385Z,14.23
2023-02-16T06:54:00.294Z,12.83
2023-02-16T06:56:29.579Z,13.47
2023-02-16T06:58:57.427Z,13.73
2023-02-16T07:01:26.099Z,13.07
2023-02-16T07:03:55.915Z,13.20
2023-02-16T07:06:25.572Z,13.80
2023-02-16T07:08:54.734Z,13.73
2023-02-16T07:11:22.787Z,14.53
2023-02-16T07:13:52.597Z,14.50
2023-02-16T07:16:20.892Z,13.43
2023-02-16T07:18:48.943Z,14.40
2023-02-16T07:21:17.027Z,14.77
2023-02-16T07:23:45.374Z,14.13
2023-02-16T07:26:13.414Z,14.53
2023-02-16T07:28:41.818Z,14.27
2023-02-16T07:31:13.485Z,14.90
2023-02-16T07:33:41.928Z,14.47
2023-02-16T07:36:11.241Z,15.03
2023-02-16T07:38:41.881Z,14.87
2023-02-16T07:41:10.768Z,14.30
2023-02-16T07:43:39.085Z,14.77
2023-02-16T07:46:07.322Z,15.63
2023-02-16T07:48:36.693Z,15.50
2023-02-16T07:51:05.357Z,14.30
2023-02-16T07:53:33.589Z,15.50
2023-02-16T07:56:01.533Z,15.17
2023-02-16T07:58:29.365Z,15.77
2023-02-16T08:00:58.659Z,15.57
2023-02-16T08:03:26.784Z,14.90
2023-02-16T08:05:56.222Z,15.80
2023-02-16T08:08:24.108Z,16.10
2023-02-16T08:10:52.033Z,16.73
2023-02-16T08:13:20.064Z,15.10
2023-02-16T08:15:48.012Z,17.53
2023-02-16T08:18:16.168Z,16.70
2023-02-16T08:21:02.323Z,16.33
2023-02-16T08:23:32.451Z,15.30
2023-02-16T08:26:00.468Z,16.00
2023-02-16T08:28:29.524Z,16.43
2023-02-16T08:30:57.682Z,16.13
2023-02-16T08:33:25.837Z,16.40
2023-02-16T08:35:55.889Z,15.83
2023-02-16T08:38:23.851Z,17.80
2023-02-16T08:40:53.266Z,16.17
2023-02-16T08:43:21.133Z,16.90
2023-02-16T08:45:49.925Z,17.30
2023-02-16T08:48:17.826Z,16.63
2023-02-16T08:50:53.400Z,16.80
2023-02-16T08:53:23.081Z,16.00
2023-02-16T08:55:56.295Z,16.90
2023-02-16T08:58:24.488Z,16.67
2023-02-16T09:00:52.478Z,17.43
2023-02-16T09:03:20.736Z,17.83
2023-02-16T09:05:49.731Z,16.30
2023-02-16T09:08:17.920Z,17.53
2023-02-16T09:10:46.009Z,16.70
2023-02-16T09:13:15.991Z,18.03
2023-02-16T09:15:44.308Z,17.40
2023-02-16T09:18:13.989Z,18.17
2023-02-16T09:20:46.733Z,17.07
2023-02-16T09:23:14.874Z,16.07
2023-02-16T09:25:42.956Z,17.00
2023-02-16T09:28:11.469Z,17.67
2023-02-16T09:30:40.979Z,17.83
2023-02-16T09:33:08.916Z,18.00
2023-02-16T09:35:39.838Z,18.70
2023-02-16T09:38:08.603Z,17.70
2023-02-16T09:40:38.339Z,18.07
2023-02-16T09:43:14.132Z,17.13
2023-02-16T09:45:47.556Z,17.17
2023-02-16T09:48:30.444Z,16.73
2023-02-16T09:51:01.001Z,17.43
2023-02-16T09:53:36.109Z,15.53
2023-02-16T09:56:16.824Z,16.30
2023-02-16T09:58:49.686Z,15.93
2023-02-16T10:01:28.939Z,14.50
2023-02-16T10:04:06.787Z,14.60
2023-02-16T10:06:51.272Z,14.70
2023-02-16T10:09:20.497Z,15.67
2023-02-16T10:11:54.395Z,14.60
2023-02-16T10:14:31.706Z,15.00
2023-02-16T10:17:08.828Z,15.10
2023-02-16T10:19:42.420Z,15.00
2023-02-16T10:22:17.559Z,15.67
2023-02-16T10:24:53.130Z,13.90
2023-02-16T10:27:23.054Z,15.47
2023-02-16T10:29:50.979Z,15.07
2023-02-16T10:32:29.148Z,15.57
2023-02-16T10:35:06.093Z,15.77
2023-02-16T10:37:48.168Z,15.57
2023-02-16T10:40:24.348Z,14.97
2023-02-16T10:42:57.081Z,17.13
2023-02-16T10:45:31.916Z,15.13
2023-02-16T10:48:01.902Z,15.80
2023-02-16T10:50:34.112Z,16.07
2023-02-16T10:53:06.343Z,15.67
2023-02-16T10:55:35.671Z,15.57
2023-02-16T10:58:03.792Z,16.30
2023-02-16T11:00:43.981Z,16.30
2023-02-16T11:03:15.514Z,15.97
2023-02-16T11:05:43.652Z,15.47
2023-02-16T11:08:12.908Z,15.67
2023-02-16T11:10:48.945Z,15.10
2023-02-16T11:13:32.476Z,16.83
2023-02-16T11:16:05.238Z,16.40
2023-02-16T11:18:37.879Z,14.67
2023-02-16T11:21:07.467Z,15.60
2023-02-16T11:23:37.593Z,16.00
2023-02-16T11:26:08.855Z,15.73
2023-02-16T11:28:39.282Z,14.70
2023-02-16T11:31:19.725Z,15.27
2023-02-16T11:34:02.591Z,15.50
2023-02-16T11:36:35.425Z,16.63
2023-02-16T11:39:06.969Z,15.47
2023-02-16T11:41:36.645Z,15.80
2023-02-16T11:44:05.348Z,14.97
2023-02-16T11:46:41.778Z,14.97
2023-02-16T11:49:33.739Z,16.03
2023-02-16T11:52:02.672Z,15.73
2023-02-16T11:54:30.891Z,14.70
2023-02-16T11:57:05.122Z,15.10
2023-02-16T11:59:39.698Z,14.83
2023-02-16T12:02:28.955Z,14.33
2023-02-16T12:05:15.822Z,14.70
2023-02-16T12:07:52.760Z,15.10
2023-02-16T12:10:26.834Z,16.70
2023-02-16T12:13:02.999Z,14.57
2023-02-16T12:15:37.245Z,14.37
2023-02-16T12:18:17.134Z,14.93
2023-02-16T12:20:54.289Z,15.13
2023-02-16T12:23:35.334Z,14.50
2023-02-16T12:26:26.986Z,14.63
2023-02-16T12:29:04.134Z,16.33
2023-02-16T12:31:47.568Z,14.30
2023-02-16T12:34:25.835Z,15.23
2023-02-16T12:37:03.549Z,15.17
2023-02-16T12:39:41.771Z,14.43
2023-02-16T12:42:41.564Z,13.97
2023-02-16T12:45:15.728Z,13.37
2023-02-16T12:47:48.642Z,13.77
2023-02-16T12:50:21.527Z,14.30
2023-02-16T12:52:55.226Z,14.03
2023-02-16T12:55:28.155Z,14.33
2023-02-16T12:58:03.028Z,14.60
2023-02-16T13:00:42.043Z,14.63
2023-02-16T13:03:25.161Z,14.77
2023-02-16T13:06:15.633Z,14.53
2023-02-16T13:08:49.490Z,13.37
2023-02-16T13:11:24.749Z,14.20
2023-02-16T13:13:58.826Z,14.07
2023-02-16T13:16:38.239Z,12.20
2023-02-16T13:19:06.646Z,13.93
2023-02-16T13:21:52.312Z,14.10
2023-02-16T13:24:33.611Z,13.23
2023-02-16T13:27:11.878Z,12.83
2023-02-16T13:30:27.575Z,12.53
2023-02-16T13:33:28.492Z,12.07
2023-02-16T13:36:09.989Z,11.80
2023-02-16T13:39:01.363Z,12.43
2023-02-16T13:41:46.026Z,12.40
2023-02-16T13:44:18.260Z,11.60
2023-02-16T13:46:50.307Z,12.53
2023-02-16T13:49:36.208Z,12.23
2023-02-16T13:52:04.726Z,12.30
2023-02-16T13:54:36.924Z,12.10
2023-02-16T13:57:06.473Z,10.17
2023-02-16T14:00:05.604Z,11.00
2023-02-16T14:02:54.405Z,9.77
2023-02-16T14:05:34.736Z,10.20
2023-02-16T14:08:22.236Z,10.50
2023-02-16T14:11:05.705Z,9.77
2023-02-16T14:13:47.059Z,9.77
2023-02-16T14:16:32.568Z,9.10
2023-02-16T14:19:06.884Z,9.70
2023-02-16T14:21:41.225Z,8.87
2023-02-16T14:24:14.493Z,9.77
2023-02-16T14:27:00.318Z,9.10
2023-02-16T14:29:32.526Z,9.00
2023-02-16T14:32:05.581Z,9.00
2023-02-16T14:34:39.563Z,9.17
2023-02-16T14:37:30.109Z,8.37
2023-02-16T14:40:21.376Z,8.47
2023-02-16T14:43:02.595Z,9.17
2023-02-16T14:46:09.972Z,9.20
2023-02-16T14:49:11.173Z,8.13
2023-02-16T14:52:10.668Z,8.40
2023-02-16T14:55:03.729Z,9.70
2023-02-16T14:57:36.420Z,11.43
2023-02-16T15:00:13.529Z,10.97
2023-02-16T15:02:55.054Z,11.47
2023-02-16T15:05:25.295Z,11.53
2023-02-16T15:07:59.641Z,11.97
2023-02-16T15:10:29.439Z,11.70
2023-02-16T15:12:57.993Z,11.73
2023-02-16T15:15:31.435Z,11.00
2023-02-16T15:18:01.780Z,12.13
2023-02-16T15:20:34.206Z,11.00
2023-02-16T15:23:04.273Z,11.17
2023-02-16T15:25:34.975Z,11.33
2023-02-16T15:28:05.537Z,11.40
2023-02-16T15:30:35.639Z,10.73
2023-02-16T15:33:07.587Z,11.23
2023-02-16T15:35:39.357Z,11.00
2023-02-16T15:38:21.987Z,9.87
2023-02-16T15:40:54.228Z,11.00
2023-02-16T15:43:31.871Z,11.17
2023-02-16T15:46:01.557Z,10.87
2023-02-16T15:48:32.218Z,10.30
2023-02-16T15:51:08.974Z,11.30
2023-02-16T15:53:42.359Z,11.33
2023-02-16T15:56:27.968Z,10.70
2023-02-16T15:58:57.249Z,10.67
2023-02-16T16:01:32.953Z,10.23
2023-02-16T16:04:14.406Z,11.03
2023-02-16T16:06:42.449Z,10.60
2023-02-16T16:09:21.737Z,10.60
2023-02-16T16:11:51.725Z,10.77
2023-02-16T16:14:19.864Z,10.80
2023-02-16T16:16:48.148Z,8.07
2023-02-16T16:19:19.401Z,8.33
2023-02-16T16:21:51.575Z,5.93
2023-02-16T16:24:34.017Z,5.30
2023-02-16T16:27:05.446Z,5.43
2023-02-16T16:29:36.543Z,4.80
2023-02-16T16:32:05.539Z,5.23
2023-02-16T16:34:37.491Z,5.13
2023-02-16T16:37:07.406Z,5.23
2023-02-16T16:39:40.376Z,5.10
2023-02-16T16:42:18.929Z,4.70
2023-02-16T16:44:59.752Z,5.13
2023-02-16T16:47:30.834Z,4.97
2023-02-16T16:50:02.290Z,4.87
2023-02-16T16:52:41.786Z,5.17
2023-02-16T16:55:24.904Z,4.97
2023-02-16T16:57:54.663Z,5.10
2023-02-16T17:00:23.832Z,5.23
2023-02-16T17:02:51.938Z,4.97
2023-02-16T17:05:21.702Z,5.17
2023-02-16T17:07:51.947Z,5.40
2023-02-16T17:10:21.848Z,5.60
2023-02-16T17:12:53.807Z,6.03
2023-02-16T17:15:33.068Z,6.10
2023-02-16T17:18:02.269Z,6.53
2023-02-16T17:20:31.621Z,5.80
2023-02-16T17:23:04.350Z,5.40
2023-02-16T17:25:34.276Z,6.40
2023-02-16T17:28:02.328Z,5.57
2023-02-16T17:30:30.835Z,6.77
2023-02-16T17:33:00.797Z,6.07
2023-02-16T17:35:31.275Z,6.53
2023-02-16T17:37:59.137Z,5.93
2023-02-16T17:40:29.588Z,6.47
2023-02-16T17:42:57.626Z,6.47
2023-02-16T17:45:25.603Z,6.57
2023-02-16T17:47:54.057Z,6.87
2023-02-16T17:50:22.252Z,6.83
2023-02-16T17:52:57.071Z,6.80
2023-02-16T17:55:25.598Z,7.10
2023-02-16T17:57:55.697Z,6.70
2023-02-16T18:00:23.756Z,7.10
2023-02-16T18:02:51.716Z,7.40
2023-02-16T18:05:19.608Z,6.83
2023-02-16T18:07:47.510Z,7.00
2023-02-16T18:10:31.685Z,7.20
2023-02-16T18:12:59.568Z,7.33
2023-02-16T18:15:27.746Z,6.43
2023-02-16T18:17:55.696Z,7.17
2023-02-16T18:20:23.595Z,6.93
2023-02-16T18:22:51.580Z,7.13
2023-02-16T18:25:20.986Z,7.60
2023-02-16T18:27:48.926Z,7.07
2023-02-16T18:30:17.613Z,6.67
2023-02-16T18:32:46.084Z,7.30
2023-02-16T18:35:15.102Z,6.93
2023-02-16T18:37:43.189Z,6.90
2023-02-16T18:40:13.386Z,7.70
2023-02-16T18:42:42.786Z,7.67
2023-02-16T18:45:10.932Z,7.53
2023-02-16T18:47:39.258Z,7.30
2023-02-16T18:50:08.277Z,7.10
2023-02-16T18:52:36.204Z,7.53
2023-02-16T18:55:04.168Z,7.33
2023-02-16T18:57:31.993Z,7.73
2023-02-16T19:00:01.158Z,7.63
2023-02-16T19:02:29.229Z,7.77
2023-02-16T19:04:58.019Z,7.33
2023-02-16T19:07:25.859Z,7.37
2023-02-16T19:09:53.887Z,7.93
2023-02-16T19:12:21.765Z,7.50
2023-02-16T19:14:49.670Z,8.07
2023-02-16T19:17:18.922Z,8.47
2023-02-16T19:19:47.693Z,7.03
2023-02-16T19:22:16.015Z,7.00
2023-02-16T19:24:43.896Z,7.83
2023-02-16T19:27:11.968Z,6.73
2023-02-16T19:29:40.393Z,7.70
2023-02-16T19:32:08.366Z,8.10
2023-02-16T19:34:37.770Z,7.63
2023-02-16T19:37:05.781Z,7.10
2023-02-16T19:39:33.655Z,7.17
2023-02-16T19:42:01.561Z,6.73
2023-02-16T19:44:29.603Z,6.63
2023-02-16T19:46:57.477Z,6.47
2023-02-16T19:49:25.415Z,6.03
2023-02-16T19:51:55.497Z,4.93
2023-02-16T19:54:25.151Z,4.80
2023-02-16T19:56:54.077Z,4.60
2023-02-16T19:59:23.136Z,4.87
2023-02-16T20:01:51.223Z,5.70
2023-02-16T20:04:19.111Z,4.60
2023-02-16T20:06:47.170Z,4.70
2023-02-16T20:09:17.633Z,4.47
2023-02-16T20:11:45.536Z,4.93
2023-02-16T20:14:13.977Z,4.63
2023-02-16T20:16:42.188Z,4.70
2023-02-16T20:19:11.157Z,5.47
2023-02-16T20:21:40.845Z,5.43
2023-02-16T20:24:08.837Z,5.20
2023-02-16T20:26:40.835Z,5.70
2023-02-16T20:29:10.447Z,5.30
2023-02-16T20:31:42.275Z,5.73
2023-02-16T20:34:11.249Z,4.80
2023-02-16T20:36:39.266Z,5.63
2023-02-16T20:39:08.346Z,5.37
2023-02-16T20:41:38.046Z,5.53
2023-02-16T20:44:06.466Z,5.53
2023-02-16T20:46:34.768Z,5.53
2023-02-16T20:49:03.408Z,5.80
2023-02-16T20:51:31.629Z,6.20
2023-02-16T20:54:01.114Z,5.93
2023-02-16T20:56:29.791Z,5.93
2023-02-16T20:58:59.536Z,5.77
2023-02-16T21:01:30.453Z,5.60
2023-02-16T21:03:59.970Z,5.37
2023-02-16T21:06:28.483Z,5.00
2023-02-16T21:08:56.943Z,5.60
2023-02-16T21:11:25.454Z,5.40
2023-02-16T21:13:53.600Z,5.87
2023-02-16T21:16:23.522Z,5.27
2023-02-16T21:18:51.664Z,5.80
2023-02-16T21:21:19.596Z,5.57
2023-02-16T21:23:50.127Z,5.37
2023-02-16T21:26:19.287Z,5.77
2023-02-16T21:28:47.335Z,6.40
2023-02-16T21:31:18.200Z,6.33
2023-02-16T21:33:48.155Z,5.80
2023-02-16T21:36:18.609Z,6.80
2023-02-16T21:38:47.152Z,5.80
2023-02-16T21:41:25.847Z,6.33
2023-02-16T21:43:56.322Z,5.60
2023-02-16T21:46:24.477Z,5.37
2023-02-16T21:48:53.270Z,6.37
2023-02-16T21:51:24.044Z,5.77
2023-02-16T21:53:53.273Z,5.07
2023-02-16T21:56:33.698Z,5.33
2023-02-16T21:59:01.924Z,5.40
2023-02-16T22:01:32.070Z,5.60
2023-02-16T22:04:02.718Z,5.67
2023-02-16T22:06:33.197Z,5.07
2023-02-16T22:09:02.240Z,5.47
2023-02-16T22:11:30.178Z,5.30
2023-02-16T22:14:02.765Z,5.10
2023-02-16T22:16:32.200Z,5.33
2023-02-16T22:19:07.070Z,5.03
2023-02-16T22:21:36.342Z,5.60
2023-02-16T22:24:05.034Z,5.40
2023-02-16T22:26:35.390Z,5.60
2023-02-16T22:29:04.257Z,5.40
2023-02-16T22:31:32.233Z,5.40
2023-02-16T22:34:03.384Z,4.80
2023-02-16T22:36:31.897Z,4.77
2023-02-16T22:38:59.962Z,5.43
2023-02-16T22:41:28.029Z,5.40
2023-02-16T22:43:57.255Z,5.60
2023-02-16T22:46:25.580Z,5.73
2023-02-16T22:48:53.920Z,5.50
2023-02-16T22:51:23.368Z,5.37
2023-02-16T22:53:51.417Z,5.47
2023-02-16T22:56:20.868Z,5.60
2023-02-16T22:58:49.032Z,5.80
2023-02-16T23:01:19.302Z,5.10
2023-02-16T23:03:47.967Z,5.20
2023-02-16T23:06:17.886Z,5.97
2023-02-16T23:08:48.380Z,6.13
2023-02-16T23:11:16.538Z,5.50
2023-02-16T23:13:44.420Z,6.23
2023-02-16T23:16:14.888Z,5.70
2023-02-16T23:18:43.280Z,5.27
2023-02-16T23:21:17.028Z,6.20
2023-02-16T23:23:45.259Z,5.60
2023-02-16T23:26:15.278Z,5.50
2023-02-16T23:28:45.094Z,5.30
2023-02-16T23:31:13.497Z,5.80
2023-02-16T23:33:41.550Z,5.37
2023-02-16T23:36:10.238Z,5.63
2023-02-16T23:38:38.308Z,5.47
2023-02-16T23:41:08.772Z,6.03
2023-02-16T23:43:38.597Z,5.70
2023-02-16T23:46:07.765Z,5.90
2023-02-16T23:48:35.890Z,5.30
2023-02-16T23:51:04.074Z,5.83
2023-02-16T23:53:32.076Z,5.27
2023-02-16T23:56:00.628Z,5.50
2023-02-16T23:58:29.302Z,4.83
